KNUW/NUW METAR and TAF weather

Enter ICAO airport designator
Station Type Date Time Source
KNUW METAR 2019/05/20 09:56 UTC NOAA

KNUW 200956Z 23009KT 10SM SCT031 BKN049 BKN080 13/09 A2980 RMK AO2 SLP090 T01280089 $


Station Type Date Time Source
KNUW Decoded METAR 2019/05/20 09:56 UTC NOAA

NAS WHIDBEY ISLAND, WA, United States (KNUW) 48-21N 122-39W 8M
May 20, 2019 - 05:56 AM EDT / 2019.05.20 0956 UTC
Wind: from the SW (230 degrees) at 10 MPH (9 KT):0
Visibility: 10 mile(s):0
Sky conditions: mostly cloudy
Temperature: 55.0 F (12.8 C)
Dew Point: 48.0 F (8.9 C)
Relative Humidity: 77%
Pressure (altimeter): 29.8 in. Hg (1009 hPa)
ob: KNUW 200956Z 23009KT 10SM SCT031 BKN049 BKN080 13/09 A2980 RMK AO2 SLP090 T01280089
cycle: 10

Station Type Date Time Source
KNUW TAF 2019/05/20 07:06 UTC NOAA

TAF KNUW 2007/2107 22009KT 9999 FEW035 BKN110 BKN150 640807 QNH2970INS
FM201100 19006KT 9999 BKN050 BKN100 640809 QNH2971INS
FM201600 18009KT 9999 VCSH SCT015 BKN030 BKN050 OVC100 640809 QNH2970INS
TEMPO 2018/2022 6000 -SHRA BR BKN015
FM202300 VRB06KT 8000 -SHRA BR SCT015 BKN025 BKN100 640809 QNH2965INS T11/2010Z T17/2022Z FS30112

Example: see airport list